sensor_id;sensor_type;location;lat;lon;timestamp;pressure;altitude;pressure_sealevel;temperature;humidity
64080;BME280;51042;49.696;10.808;2023-05-28T00:00:36;98754.94;;;11.77;82.43
64080;BME280;51042;49.696;10.808;2023-05-28T00:03:01;98758.56;;;11.74;81.98
64080;BME280;51042;49.696;10.808;2023-05-28T00:05:26;98753.91;;;11.71;81.28
64080;BME280;51042;49.696;10.808;2023-05-28T00:07:52;98757.19;;;11.66;82.31
64080;BME280;51042;49.696;10.808;2023-05-28T00:10:17;98750.25;;;11.62;82.27
64080;BME280;51042;49.696;10.808;2023-05-28T00:12:42;98755.81;;;11.58;83.18
64080;BME280;51042;49.696;10.808;2023-05-28T00:15:08;98746.13;;;11.54;82.51
64080;BME280;51042;49.696;10.808;2023-05-28T00:17:34;98746.66;;;11.49;83.47
64080;BME280;51042;49.696;10.808;2023-05-28T00:20:00;98745.19;;;11.44;83.78
64080;BME280;51042;49.696;10.808;2023-05-28T00:22:25;98743.81;;;11.52;83.16
64080;BME280;51042;49.696;10.808;2023-05-28T00:24:50;98742.72;;;11.50;82.19
64080;BME280;51042;49.696;10.808;2023-05-28T00:27:16;98736.22;;;11.56;83.26
64080;BME280;51042;49.696;10.808;2023-05-28T00:29:41;98730.75;;;11.56;82.30
64080;BME280;51042;49.696;10.808;2023-05-28T00:32:08;98737.00;;;11.57;81.84
64080;BME280;51042;49.696;10.808;2023-05-28T00:34:34;98736.00;;;11.51;82.16
64080;BME280;51042;49.696;10.808;2023-05-28T00:36:59;98730.25;;;11.45;83.28
64080;BME280;51042;49.696;10.808;2023-05-28T00:39:24;98741.78;;;11.40;82.78
64080;BME280;51042;49.696;10.808;2023-05-28T00:41:58;98739.56;;;11.35;83.92
64080;BME280;51042;49.696;10.808;2023-05-28T00:44:25;98736.97;;;11.28;80.29
64080;BME280;51042;49.696;10.808;2023-05-28T00:46:52;98738.03;;;11.18;81.13
64080;BME280;51042;49.696;10.808;2023-05-28T00:49:17;98746.19;;;11.05;82.57
64080;BME280;51042;49.696;10.808;2023-05-28T00:51:42;98726.88;;;10.92;84.92
64080;BME280;51042;49.696;10.808;2023-05-28T00:54:08;98736.81;;;10.86;86.88
64080;BME280;51042;49.696;10.808;2023-05-28T00:56:33;98735.78;;;10.80;86.20
64080;BME280;51042;49.696;10.808;2023-05-28T00:59:00;98736.91;;;10.83;88.82
64080;BME280;51042;49.696;10.808;2023-05-28T01:01:26;98732.19;;;10.83;88.73
64080;BME280;51042;49.696;10.808;2023-05-28T01:03:53;98731.94;;;10.78;90.38
64080;BME280;51042;49.696;10.808;2023-05-28T01:06:19;98737.16;;;10.72;90.74
64080;BME280;51042;49.696;10.808;2023-05-28T01:08:46;98729.44;;;10.67;91.20
64080;BME280;51042;49.696;10.808;2023-05-28T01:11:13;98734.06;;;10.54;89.83
64080;BME280;51042;49.696;10.808;2023-05-28T01:13:41;98725.28;;;10.43;93.15
64080;BME280;51042;49.696;10.808;2023-05-28T01:16:07;98721.84;;;10.39;94.16
64080;BME280;51042;49.696;10.808;2023-05-28T01:18:33;98724.25;;;10.37;94.67
64080;BME280;51042;49.696;10.808;2023-05-28T01:20:59;98712.66;;;10.29;94.49
64080;BME280;51042;49.696;10.808;2023-05-28T01:23:28;98715.47;;;10.26;95.80
64080;BME280;51042;49.696;10.808;2023-05-28T01:25:54;98712.03;;;10.21;96.42
64080;BME280;51042;49.696;10.808;2023-05-28T01:28:21;98708.22;;;10.15;96.36
64080;BME280;51042;49.696;10.808;2023-05-28T01:30:47;98715.38;;;10.09;92.38
64080;BME280;51042;49.696;10.808;2023-05-28T01:33:12;98713.69;;;10.15;93.13
64080;BME280;51042;49.696;10.808;2023-05-28T01:35:39;98715.31;;;10.13;94.18
64080;BME280;51042;49.696;10.808;2023-05-28T01:38:04;98710.00;;;10.06;94.46
64080;BME280;51042;49.696;10.808;2023-05-28T01:40:32;98710.06;;;10.02;94.91
64080;BME280;51042;49.696;10.808;2023-05-28T01:42:59;98705.75;;;10.01;98.14
64080;BME280;51042;49.696;10.808;2023-05-28T01:45:26;98714.06;;;9.98;91.65
64080;BME280;51042;49.696;10.808;2023-05-28T01:47:53;98706.13;;;10.03;96.79
64080;BME280;51042;49.696;10.808;2023-05-28T01:50:18;98710.56;;;9.97;98.46
64080;BME280;51042;49.696;10.808;2023-05-28T01:52:43;98705.22;;;9.90;99.83
64080;BME280;51042;49.696;10.808;2023-05-28T01:55:09;98708.44;;;9.85;100.00
64080;BME280;51042;49.696;10.808;2023-05-28T01:57:36;98706.97;;;9.80;94.65
64080;BME280;51042;49.696;10.808;2023-05-28T02:00:02;98705.78;;;9.81;95.24
64080;BME280;51042;49.696;10.808;2023-05-28T02:02:28;98704.66;;;9.79;97.12
64080;BME280;51042;49.696;10.808;2023-05-28T02:04:54;98702.78;;;9.76;96.88
64080;BME280;51042;49.696;10.808;2023-05-28T02:07:19;98696.50;;;9.75;99.04
64080;BME280;51042;49.696;10.808;2023-05-28T02:09:45;98696.56;;;9.72;98.57
64080;BME280;51042;49.696;10.808;2023-05-28T02:12:10;98695.09;;;9.67;94.37
64080;BME280;51042;49.696;10.808;2023-05-28T02:14:36;98701.00;;;9.66;96.76
64080;BME280;51042;49.696;10.808;2023-05-28T02:17:02;98696.78;;;9.61;100.00
64080;BME280;51042;49.696;10.808;2023-05-28T02:19:27;98696.09;;;9.57;95.01
64080;BME280;51042;49.696;10.808;2023-05-28T02:21:53;98693.41;;;9.54;94.71
64080;BME280;51042;49.696;10.808;2023-05-28T02:24:19;98699.81;;;9.47;100.00
64080;BME280;51042;49.696;10.808;2023-05-28T02:26:44;98694.47;;;9.40;100.00
64080;BME280;51042;49.696;10.808;2023-05-28T02:29:10;98692.75;;;9.26;97.38
64080;BME280;51042;49.696;10.808;2023-05-28T02:31:36;98687.75;;;9.21;100.00
64080;BME280;51042;49.696;10.808;2023-05-28T02:34:01;98688.13;;;9.23;100.00
64080;BME280;51042;49.696;10.808;2023-05-28T02:36:26;98689.59;;;9.28;100.00
64080;BME280;51042;49.696;10.808;2023-05-28T02:38:52;98685.00;;;9.21;100.00
64080;BME280;51042;49.696;10.808;2023-05-28T02:41:17;98692.16;;;9.15;100.00
64080;BME280;51042;49.696;10.808;2023-05-28T02:43:42;98690.69;;;9.11;100.00
64080;BME280;51042;49.696;10.808;2023-05-28T02:46:09;98694.25;;;9.08;100.00
64080;BME280;51042;49.696;10.808;2023-05-28T02:48:34;98696.00;;;8.98;100.00
64080;BME280;51042;49.696;10.808;2023-05-28T02:51:00;98692.22;;;8.88;100.00
64080;BME280;51042;49.696;10.808;2023-05-28T02:53:28;98688.84;;;8.81;100.00
64080;BME280;51042;49.696;10.808;2023-05-28T02:55:54;98684.06;;;8.85;100.00
64080;BME280;51042;49.696;10.808;2023-05-28T02:58:20;98691.81;;;8.90;100.00
64080;BME280;51042;49.696;10.808;2023-05-28T03:00:45;98694.63;;;8.86;100.00
64080;BME280;51042;49.696;10.808;2023-05-28T03:03:10;98692.69;;;8.83;100.00
64080;BME280;51042;49.696;10.808;2023-05-28T03:05:36;98699.00;;;8.80;100.00
64080;BME280;51042;49.696;10.808;2023-05-28T03:08:01;98701.50;;;8.71;100.00
64080;BME280;51042;49.696;10.808;2023-05-28T03:10:27;98702.25;;;8.72;100.00
64080;BME280;51042;49.696;10.808;2023-05-28T03:12:52;98701.78;;;8.77;100.00
64080;BME280;51042;49.696;10.808;2023-05-28T03:15:17;98701.00;;;8.76;100.00
64080;BME280;51042;49.696;10.808;2023-05-28T03:17:43;98700.28;;;8.76;100.00
64080;BME280;51042;49.696;10.808;2023-05-28T03:20:08;98704.13;;;8.78;100.00
64080;BME280;51042;49.696;10.808;2023-05-28T03:22:35;98706.16;;;8.74;100.00
64080;BME280;51042;49.696;10.808;2023-05-28T03:25:01;98704.31;;;8.64;100.00
64080;BME280;51042;49.696;10.808;2023-05-28T03:27:30;98699.69;;;8.61;100.00
64080;BME280;51042;49.696;10.808;2023-05-28T03:29:56;98696.91;;;8.65;100.00
64080;BME280;51042;49.696;10.808;2023-05-28T03:32:21;98706.16;;;8.74;100.00
64080;BME280;51042;49.696;10.808;2023-05-28T03:34:46;98704.00;;;8.85;100.00
64080;BME280;51042;49.696;10.808;2023-05-28T03:37:12;98698.75;;;8.94;100.00
64080;BME280;51042;49.696;10.808;2023-05-28T03:39:37;98706.53;;;8.99;100.00
64080;BME280;51042;49.696;10.808;2023-05-28T03:42:02;98697.94;;;8.97;100.00
64080;BME280;51042;49.696;10.808;2023-05-28T03:44:28;98701.47;;;8.98;100.00
64080;BME280;51042;49.696;10.808;2023-05-28T03:46:53;98689.66;;;9.01;99.36
64080;BME280;51042;49.696;10.808;2023-05-28T03:49:18;98693.06;;;9.09;97.41
64080;BME280;51042;49.696;10.808;2023-05-28T03:51:44;98691.88;;;9.10;97.74
64080;BME280;51042;49.696;10.808;2023-05-28T03:54:09;98692.28;;;9.08;99.37
64080;BME280;51042;49.696;10.808;2023-05-28T03:56:35;98698.63;;;9.25;99.96
64080;BME280;51042;49.696;10.808;2023-05-28T03:59:00;98690.53;;;9.41;98.00
64080;BME280;51042;49.696;10.808;2023-05-28T04:01:26;98686.84;;;9.48;96.29
64080;BME280;51042;49.696;10.808;2023-05-28T04:03:51;98688.28;;;9.56;94.57
64080;BME280;51042;49.696;10.808;2023-05-28T04:06:18;98690.41;;;9.68;93.42
64080;BME280;51042;49.696;10.808;2023-05-28T04:08:43;98688.16;;;9.82;92.18
64080;BME280;51042;49.696;10.808;2023-05-28T04:11:08;98691.16;;;9.88;92.84
64080;BME280;51042;49.696;10.808;2023-05-28T04:13:34;98689.47;;;9.94;94.27
64080;BME280;51042;49.696;10.808;2023-05-28T04:15:59;98697.19;;;10.87;89.89
64080;BME280;51042;49.696;10.808;2023-05-28T04:18:24;98689.25;;;12.08;82.73
64080;BME280;51042;49.696;10.808;2023-05-28T04:20:50;98682.66;;;13.29;73.76
64080;BME280;51042;49.696;10.808;2023-05-28T04:23:15;98682.28;;;14.57;66.97
64080;BME280;51042;49.696;10.808;2023-05-28T04:25:40;98685.72;;;15.65;62.27
64080;BME280;51042;49.696;10.808;2023-05-28T04:28:06;98690.59;;;16.49;59.22
64080;BME280;51042;49.696;10.808;2023-05-28T04:30:31;98684.28;;;17.14;57.06
64080;BME280;51042;49.696;10.808;2023-05-28T04:32:56;98679.69;;;17.88;55.77
64080;BME280;51042;49.696;10.808;2023-05-28T04:35:22;98687.38;;;18.08;55.12
64080;BME280;51042;49.696;10.808;2023-05-28T04:37:47;98688.22;;;17.84;55.17
64080;BME280;51042;49.696;10.808;2023-05-28T04:40:16;98683.81;;;18.36;53.74
64080;BME280;51042;49.696;10.808;2023-05-28T04:42:41;98690.41;;;19.03;51.99
64080;BME280;51042;49.696;10.808;2023-05-28T04:45:08;98691.59;;;19.37;50.90
64080;BME280;51042;49.696;10.808;2023-05-28T04:47:34;98694.16;;;19.81;49.73
64080;BME280;51042;49.696;10.808;2023-05-28T04:50:03;98696.56;;;20.46;48.81
64080;BME280;51042;49.696;10.808;2023-05-28T04:52:29;98694.25;;;20.44;48.56
64080;BME280;51042;49.696;10.808;2023-05-28T04:54:58;98691.75;;;20.83;47.42
64080;BME280;51042;49.696;10.808;2023-05-28T04:57:23;98694.56;;;21.26;46.45
64080;BME280;51042;49.696;10.808;2023-05-28T04:59:49;98688.19;;;21.20;45.93
64080;BME280;51042;49.696;10.808;2023-05-28T05:02:14;98701.06;;;21.65;45.27
64080;BME280;51042;49.696;10.808;2023-05-28T05:04:43;98693.44;;;21.66;45.20
64080;BME280;51042;49.696;10.808;2023-05-28T05:07:09;98703.22;;;22.04;44.77
64080;BME280;51042;49.696;10.808;2023-05-28T05:09:34;98698.41;;;22.21;44.56
64080;BME280;51042;49.696;10.808;2023-05-28T05:12:00;98692.53;;;22.02;44.35
64080;BME280;51042;49.696;10.808;2023-05-28T05:14:25;98691.47;;;21.88;45.57
64080;BME280;51042;49.696;10.808;2023-05-28T05:16:50;98693.34;;;22.30;44.65
64080;BME280;51042;49.696;10.808;2023-05-28T05:19:16;98692.59;;;22.74;43.99
64080;BME280;51042;49.696;10.808;2023-05-28T05:21:41;98692.22;;;23.28;42.31
64080;BME280;51042;49.696;10.808;2023-05-28T05:24:06;98694.69;;;23.43;41.64
64080;BME280;51042;49.696;10.808;2023-05-28T05:26:32;98696.13;;;22.92;42.43
64080;BME280;51042;49.696;10.808;2023-05-28T05:28:57;98700.44;;;22.48;43.77
64080;BME280;51042;49.696;10.808;2023-05-28T05:31:22;98702.63;;;23.33;41.98
64080;BME280;51042;49.696;10.808;2023-05-28T05:33:47;98700.19;;;23.76;41.21
64080;BME280;51042;49.696;10.808;2023-05-28T05:36:13;98697.38;;;23.76;40.59
64080;BME280;51042;49.696;10.808;2023-05-28T05:38:38;98699.25;;;24.04;41.05
64080;BME280;51042;49.696;10.808;2023-05-28T05:41:03;98695.56;;;24.55;40.44
64080;BME280;51042;49.696;10.808;2023-05-28T05:43:29;98696.41;;;24.74;39.25
64080;BME280;51042;49.696;10.808;2023-05-28T05:45:54;98702.59;;;23.96;40.81
64080;BME280;51042;49.696;10.808;2023-05-28T05:48:19;98697.19;;;24.04;40.42
64080;BME280;51042;49.696;10.808;2023-05-28T05:50:51;98699.91;;;24.21;40.51
64080;BME280;51042;49.696;10.808;2023-05-28T05:53:20;98701.81;;;24.72;39.87
64080;BME280;51042;49.696;10.808;2023-05-28T05:55:46;98696.66;;;24.47;40.40
64080;BME280;51042;49.696;10.808;2023-05-28T05:58:11;98705.19;;;24.65;40.11
64080;BME280;51042;49.696;10.808;2023-05-28T06:00:36;98705.63;;;25.48;39.34
64080;BME280;51042;49.696;10.808;2023-05-28T06:03:03;98704.75;;;25.96;38.12
64080;BME280;51042;49.696;10.808;2023-05-28T06:05:28;98700.50;;;26.27;36.63
64080;BME280;51042;49.696;10.808;2023-05-28T06:07:54;98701.19;;;25.77;38.41
64080;BME280;51042;49.696;10.808;2023-05-28T06:10:20;98699.88;;;25.35;39.15
64080;BME280;51042;49.696;10.808;2023-05-28T06:12:45;98705.91;;;25.44;38.92
64080;BME280;51042;49.696;10.808;2023-05-28T06:15:11;98703.81;;;24.48;40.13
64080;BME280;51042;49.696;10.808;2023-05-28T06:17:36;98702.59;;;24.37;40.75
64080;BME280;51042;49.696;10.808;2023-05-28T06:20:02;98707.06;;;23.75;41.54
64080;BME280;51042;49.696;10.808;2023-05-28T06:22:29;98702.47;;;23.72;41.44
64080;BME280;51042;49.696;10.808;2023-05-28T06:24:55;98700.63;;;23.86;41.78
64080;BME280;51042;49.696;10.808;2023-05-28T06:27:21;98696.38;;;22.55;44.32
64080;BME280;51042;49.696;10.808;2023-05-28T06:29:47;98700.84;;;23.25;42.71
64080;BME280;51042;49.696;10.808;2023-05-28T06:32:12;98694.47;;;23.46;42.30
64080;BME280;51042;49.696;10.808;2023-05-28T06:34:38;98697.69;;;22.76;44.14
64080;BME280;51042;49.696;10.808;2023-05-28T06:37:04;98701.13;;;23.21;42.76
64080;BME280;51042;49.696;10.808;2023-05-28T06:39:29;98696.38;;;22.66;43.29
64080;BME280;51042;49.696;10.808;2023-05-28T06:41:54;98697.19;;;21.46;45.43
64080;BME280;51042;49.696;10.808;2023-05-28T06:44:20;98707.13;;;20.67;46.77
64080;BME280;51042;49.696;10.808;2023-05-28T06:46:45;98705.53;;;19.78;49.26
64080;BME280;51042;49.696;10.808;2023-05-28T06:49:11;98706.75;;;19.16;50.71
64080;BME280;51042;49.696;10.808;2023-05-28T06:51:36;98701.38;;;18.28;52.67
64080;BME280;51042;49.696;10.808;2023-05-28T06:54:02;98710.88;;;17.68;54.89
64080;BME280;51042;49.696;10.808;2023-05-28T06:56:27;98699.44;;;17.51;55.93
64080;BME280;51042;49.696;10.808;2023-05-28T06:58:53;98702.28;;;17.19;56.80
64080;BME280;51042;49.696;10.808;2023-05-28T07:01:19;98698.50;;;17.07;57.85
64080;BME280;51042;49.696;10.808;2023-05-28T07:03:45;98703.22;;;17.16;57.44
64080;BME280;51042;49.696;10.808;2023-05-28T07:06:10;98705.44;;;17.50;56.85
64080;BME280;51042;49.696;10.808;2023-05-28T07:08:35;98707.13;;;17.33;56.64
64080;BME280;51042;49.696;10.808;2023-05-28T07:11:01;98706.75;;;17.40;56.93
64080;BME280;51042;49.696;10.808;2023-05-28T07:13:26;98708.91;;;17.60;56.37
64080;BME280;51042;49.696;10.808;2023-05-28T07:15:51;98711.81;;;18.04;55.39
64080;BME280;51042;49.696;10.808;2023-05-28T07:18:17;98708.91;;;18.13;54.91
64080;BME280;51042;49.696;10.808;2023-05-28T07:20:42;98707.00;;;18.19;54.58
64080;BME280;51042;49.696;10.808;2023-05-28T07:23:07;98701.75;;;18.21;53.92
64080;BME280;51042;49.696;10.808;2023-05-28T07:25:35;98711.22;;;18.14;53.84
64080;BME280;51042;49.696;10.808;2023-05-28T07:28:00;98701.63;;;17.86;55.52
64080;BME280;51042;49.696;10.808;2023-05-28T07:30:25;98710.38;;;18.23;55.28
64080;BME280;51042;49.696;10.808;2023-05-28T07:32:51;98712.94;;;18.12;54.86
64080;BME280;51042;49.696;10.808;2023-05-28T07:35:16;98707.00;;;18.48;53.46
64080;BME280;51042;49.696;10.808;2023-05-28T07:37:41;98702.59;;;18.42;52.70
64080;BME280;51042;49.696;10.808;2023-05-28T07:40:07;98704.91;;;18.58;53.48
64080;BME280;51042;49.696;10.808;2023-05-28T07:42:33;98700.97;;;18.20;54.01
64080;BME280;51042;49.696;10.808;2023-05-28T07:44:58;98704.72;;;18.47;54.10
64080;BME280;51042;49.696;10.808;2023-05-28T07:47:24;98704.81;;;18.52;54.22
64080;BME280;51042;49.696;10.808;2023-05-28T07:49:49;98706.63;;;18.55;53.32
64080;BME280;51042;49.696;10.808;2023-05-28T07:52:15;98703.22;;;18.81;53.77
64080;BME280;51042;49.696;10.808;2023-05-28T07:54:40;98698.59;;;18.57;53.15
64080;BME280;51042;49.696;10.808;2023-05-28T07:57:05;98696.16;;;18.50;53.98
64080;BME280;51042;49.696;10.808;2023-05-28T07:59:31;98697.13;;;18.77;54.28
64080;BME280;51042;49.696;10.808;2023-05-28T08:01:56;98694.31;;;19.11;52.19
64080;BME280;51042;49.696;10.808;2023-05-28T08:04:22;98697.16;;;19.17;52.33
64080;BME280;51042;49.696;10.808;2023-05-28T08:06:47;98688.59;;;19.00;51.65
64080;BME280;51042;49.696;10.808;2023-05-28T08:09:13;98692.72;;;19.05;50.29
64080;BME280;51042;49.696;10.808;2023-05-28T08:11:42;98686.09;;;19.23;50.24
64080;BME280;51042;49.696;10.808;2023-05-28T08:14:08;98683.25;;;19.37;50.21
64080;BME280;51042;49.696;10.808;2023-05-28T08:16:33;98692.28;;;19.32;50.54
64080;BME280;51042;49.696;10.808;2023-05-28T08:18:58;98690.09;;;19.56;49.49
64080;BME280;51042;49.696;10.808;2023-05-28T08:21:24;98688.59;;;19.61;49.42
64080;BME280;51042;49.696;10.808;2023-05-28T08:23:50;98693.91;;;19.59;49.85
64080;BME280;51042;49.696;10.808;2023-05-28T08:26:15;98692.63;;;19.80;49.11
64080;BME280;51042;49.696;10.808;2023-05-28T08:28:41;98687.22;;;19.97;47.92
64080;BME280;51042;49.696;10.808;2023-05-28T08:31:06;98681.66;;;19.97;48.92
64080;BME280;51042;49.696;10.808;2023-05-28T08:33:31;98676.31;;;20.19;46.61
64080;BME280;51042;49.696;10.808;2023-05-28T08:35:56;98679.91;;;20.25;46.27
64080;BME280;51042;49.696;10.808;2023-05-28T08:38:22;98676.72;;;20.38;45.75
64080;BME280;51042;49.696;10.808;2023-05-28T08:40:48;98673.34;;;20.60;44.46
64080;BME280;51042;49.696;10.808;2023-05-28T08:43:18;98673.31;;;20.54;44.27
64080;BME280;51042;49.696;10.808;2023-05-28T08:45:43;98677.00;;;20.40;44.44
64080;BME280;51042;49.696;10.808;2023-05-28T08:48:09;98666.25;;;20.59;45.78
64080;BME280;51042;49.696;10.808;2023-05-28T08:50:38;98660.38;;;20.57;43.48
64080;BME280;51042;49.696;10.808;2023-05-28T08:53:05;98672.75;;;20.50;44.12
64080;BME280;51042;49.696;10.808;2023-05-28T08:55:33;98666.78;;;20.68;43.48
64080;BME280;51042;49.696;10.808;2023-05-28T08:57:59;98655.91;;;21.13;42.49
64080;BME280;51042;49.696;10.808;2023-05-28T09:00:25;98657.22;;;21.23;43.06
64080;BME280;51042;49.696;10.808;2023-05-28T09:02:50;98650.94;;;21.34;42.12
64080;BME280;51042;49.696;10.808;2023-05-28T09:05:15;98658.38;;;21.00;42.21
64080;BME280;51042;49.696;10.808;2023-05-28T09:07:41;98652.03;;;20.99;42.23
64080;BME280;51042;49.696;10.808;2023-05-28T09:10:06;98662.09;;;20.86;43.21
64080;BME280;51042;49.696;10.808;2023-05-28T09:12:32;98650.50;;;20.98;43.27
64080;BME280;51042;49.696;10.808;2023-05-28T09:14:57;98645.38;;;21.39;42.86
64080;BME280;51042;49.696;10.808;2023-05-28T09:20:08;98642.84;;;21.41;41.88
64080;BME280;51042;49.696;10.808;2023-05-28T09:22:35;98634.94;;;21.29;42.29
64080;BME280;51042;49.696;10.808;2023-05-28T09:25:01;98634.81;;;21.82;41.71
64080;BME280;51042;49.696;10.808;2023-05-28T09:27:27;98629.53;;;22.12;41.53
64080;BME280;51042;49.696;10.808;2023-05-28T09:29:52;98628.22;;;22.74;40.39
64080;BME280;51042;49.696;10.808;2023-05-28T09:32:18;98625.09;;;23.00;40.06
64080;BME280;51042;49.696;10.808;2023-05-28T09:34:45;98622.53;;;23.08;38.53
64080;BME280;51042;49.696;10.808;2023-05-28T09:37:14;98620.38;;;22.34;38.96
64080;BME280;51042;49.696;10.808;2023-05-28T09:39:40;98622.41;;;22.17;38.20
64080;BME280;51042;49.696;10.808;2023-05-28T09:42:06;98621.59;;;21.83;39.37
64080;BME280;51042;49.696;10.808;2023-05-28T09:44:34;98619.53;;;21.61;40.78
64080;BME280;51042;49.696;10.808;2023-05-28T09:47:00;98623.13;;;21.78;39.54
64080;BME280;51042;49.696;10.808;2023-05-28T09:49:27;98615.81;;;22.09;37.63
64080;BME280;51042;49.696;10.808;2023-05-28T09:51:56;98610.47;;;22.22;37.16
64080;BME280;51042;49.696;10.808;2023-05-28T09:54:24;98610.22;;;22.25;37.41
64080;BME280;51042;49.696;10.808;2023-05-28T09:56:53;98604.84;;;22.50;37.29
64080;BME280;51042;49.696;10.808;2023-05-28T09:59:23;98610.63;;;22.91;35.94
64080;BME280;51042;49.696;10.808;2023-05-28T10:04:21;98603.06;;;22.63;37.12
64080;BME280;51042;49.696;10.808;2023-05-28T10:06:48;98612.75;;;22.40;37.47
64080;BME280;51042;49.696;10.808;2023-05-28T10:09:16;98611.25;;;22.22;37.60
64080;BME280;51042;49.696;10.808;2023-05-28T10:11:44;98605.84;;;22.69;37.24
64080;BME280;51042;49.696;10.808;2023-05-28T10:14:21;98607.44;;;23.22;37.47
64080;BME280;51042;49.696;10.808;2023-05-28T10:16:47;98608.09;;;23.50;35.89
64080;BME280;51042;49.696;10.808;2023-05-28T10:19:14;98607.47;;;23.69;35.27
64080;BME280;51042;49.696;10.808;2023-05-28T10:21:40;98598.38;;;23.57;34.86
64080;BME280;51042;49.696;10.808;2023-05-28T10:24:05;98595.31;;;23.55;35.45
64080;BME280;51042;49.696;10.808;2023-05-28T10:26:31;98605.53;;;22.89;36.75
64080;BME280;51042;49.696;10.808;2023-05-28T10:28:57;98597.19;;;23.36;36.46
64080;BME280;51042;49.696;10.808;2023-05-28T10:31:23;98591.59;;;23.30;35.64
64080;BME280;51042;49.696;10.808;2023-05-28T10:33:48;98588.38;;;23.15;36.65
64080;BME280;51042;49.696;10.808;2023-05-28T10:36:14;98581.94;;;23.31;37.11
64080;BME280;51042;49.696;10.808;2023-05-28T10:38:45;98588.41;;;23.97;37.49
64080;BME280;51042;49.696;10.808;2023-05-28T10:41:21;98588.25;;;24.44;34.33
64080;BME280;51042;49.696;10.808;2023-05-28T10:43:47;98584.19;;;24.69;34.94
64080;BME280;51042;49.696;10.808;2023-05-28T10:51:51;98570.47;;;24.41;33.22
64080;BME280;51042;49.696;10.808;2023-05-28T10:57:17;98568.88;;;24.16;34.15
64080;BME280;51042;49.696;10.808;2023-05-28T10:59:51;98573.97;;;24.47;33.82
64080;BME280;51042;49.696;10.808;2023-05-28T11:04:58;98571.28;;;23.71;34.73
64080;BME280;51042;49.696;10.808;2023-05-28T11:07:38;98578.16;;;23.29;34.07
64080;BME280;51042;49.696;10.808;2023-05-28T11:10:06;98564.97;;;23.65;34.03
64080;BME280;51042;49.696;10.808;2023-05-28T11:12:36;98562.22;;;23.89;33.99
64080;BME280;51042;49.696;10.808;2023-05-28T11:15:06;98572.69;;;23.88;34.00
64080;BME280;51042;49.696;10.808;2023-05-28T11:17:39;98560.88;;;24.01;33.76
64080;BME280;51042;49.696;10.808;2023-05-28T11:20:16;98567.03;;;23.94;34.36
64080;BME280;51042;49.696;10.808;2023-05-28T11:22:44;98565.25;;;24.51;34.04
64080;BME280;51042;49.696;10.808;2023-05-28T11:25:10;98563.13;;;24.81;34.56
64080;BME280;51042;49.696;10.808;2023-05-28T11:27:37;98567.00;;;24.78;32.84
64080;BME280;51042;49.696;10.808;2023-05-28T11:32:33;98549.34;;;24.05;33.43
64080;BME280;51042;49.696;10.808;2023-05-28T11:34:59;98559.91;;;23.93;33.55
64080;BME280;51042;49.696;10.808;2023-05-28T11:37:29;98556.19;;;24.09;34.45
64080;BME280;51042;49.696;10.808;2023-05-28T11:39:57;98563.06;;;24.62;34.16
64080;BME280;51042;49.696;10.808;2023-05-28T11:42:24;98550.22;;;24.24;33.95
64080;BME280;51042;49.696;10.808;2023-05-28T11:44:51;98557.53;;;24.57;33.36
64080;BME280;51042;49.696;10.808;2023-05-28T11:47:17;98557.84;;;23.93;33.80
64080;BME280;51042;49.696;10.808;2023-05-28T11:49:43;98559.56;;;24.32;33.74
64080;BME280;51042;49.696;10.808;2023-05-28T11:52:12;98553.84;;;25.48;34.51
64080;BME280;51042;49.696;10.808;2023-05-28T11:54:56;98548.75;;;26.42;33.15
64080;BME280;51042;49.696;10.808;2023-05-28T11:57:27;98551.00;;;26.30;34.15
64080;BME280;51042;49.696;10.808;2023-05-28T12:00:14;98539.78;;;26.44;32.34
64080;BME280;51042;49.696;10.808;2023-05-28T12:02:48;98540.94;;;26.88;33.08
64080;BME280;51042;49.696;10.808;2023-05-28T12:05:15;98536.31;;;26.90;32.07
64080;BME280;51042;49.696;10.808;2023-05-28T12:07:45;98530.56;;;26.96;31.09
64080;BME280;51042;49.696;10.808;2023-05-28T12:10:12;98530.34;;;26.94;32.32
64080;BME280;51042;49.696;10.808;2023-05-28T12:12:43;98529.63;;;27.27;31.09
64080;BME280;51042;49.696;10.808;2023-05-28T12:15:10;98528.34;;;27.49;30.12
64080;BME280;51042;49.696;10.808;2023-05-28T12:17:37;98528.97;;;27.34;31.09
64080;BME280;51042;49.696;10.808;2023-05-28T12:20:07;98528.69;;;27.79;32.19
64080;BME280;51042;49.696;10.808;2023-05-28T12:23:01;98532.13;;;27.65;31.38
64080;BME280;51042;49.696;10.808;2023-05-28T12:25:26;98522.44;;;27.73;30.65
64080;BME280;51042;49.696;10.808;2023-05-28T12:27:51;98531.91;;;27.63;29.88
64080;BME280;51042;49.696;10.808;2023-05-28T12:30:17;98516.47;;;27.09;31.09
64080;BME280;51042;49.696;10.808;2023-05-28T12:32:42;98525.53;;;26.23;31.74
64080;BME280;51042;49.696;10.808;2023-05-28T12:35:07;98520.38;;;25.82;31.60
64080;BME280;51042;49.696;10.808;2023-05-28T12:37:33;98525.31;;;25.76;31.61
64080;BME280;51042;49.696;10.808;2023-05-28T12:39:58;98517.25;;;26.44;31.17
64080;BME280;51042;49.696;10.808;2023-05-28T12:42:24;98510.41;;;25.81;31.98
64080;BME280;51042;49.696;10.808;2023-05-28T12:44:49;98511.47;;;26.23;30.26
64080;BME280;51042;49.696;10.808;2023-05-28T12:47:15;98521.03;;;25.88;30.48
64080;BME280;51042;49.696;10.808;2023-05-28T12:49:40;98508.47;;;25.76;29.88
64080;BME280;51042;49.696;10.808;2023-05-28T12:52:05;98510.22;;;26.37;30.53
64080;BME280;51042;49.696;10.808;2023-05-28T12:54:32;98509.84;;;27.06;29.08
64080;BME280;51042;49.696;10.808;2023-05-28T12:56:58;98506.31;;;26.27;28.29
64080;BME280;51042;49.696;10.808;2023-05-28T12:59:24;98511.50;;;25.78;29.17
64080;BME280;51042;49.696;10.808;2023-05-28T13:01:50;98513.66;;;25.72;29.69
64080;BME280;51042;49.696;10.808;2023-05-28T13:04:16;98503.16;;;25.72;30.50